Time;durP1;ratioP1;P1;durP2;ratioP2;P2;SDS_P1;SDS_P2;PMS_P1;PMS_P2;Temp;Humidity;BMP_temperature;BMP_pressure;BME280_temperature;BME280_humidity;BME280_pressure;Samples;Min_cycle;Max_cycle;Signal;HPM_P1;HPM_P2
2021/09/14 00:00:36;;;;;;;42.50;28.20;;;14.30;99.90;;;;;;5010140;28;20053;-59
2021/09/14 00:03:02;;;;;;;47.28;29.38;;;14.20;99.90;;;;;;5013508;28;20030;-60
2021/09/14 00:05:27;;;;;;;45.05;30.65;;;14.20;99.90;;;;;;5007673;28;20580;-58
2021/09/14 00:07:53;;;;;;;45.75;30.58;;;14.20;99.90;;;;;;5012019;28;21036;-61
2021/09/14 00:10:19;;;;;;;44.85;30.42;;;14.20;99.90;;;;;;5009246;28;20080;-60
2021/09/14 00:12:44;;;;;;;45.13;30.38;;;14.10;99.90;;;;;;5013345;28;20033;-58
2021/09/14 00:15:10;;;;;;;43.13;29.85;;;14.10;99.90;;;;;;5004568;28;20022;-56
2021/09/14 00:17:36;;;;;;;55.85;30.52;;;14.10;99.90;;;;;;5008163;28;20025;-56
2021/09/14 00:20:02;;;;;;;47.63;30.77;;;14.10;99.90;;;;;;5009625;28;20022;-55
2021/09/14 00:22:28;;;;;;;41.08;29.13;;;14.10;99.90;;;;;;5007964;28;20034;-55
2021/09/14 00:24:53;;;;;;;47.15;30.23;;;14.10;99.90;;;;;;5007673;28;20025;-58
2021/09/14 00:27:19;;;;;;;43.63;30.67;;;14.10;99.90;;;;;;5016183;28;20125;-58
2021/09/14 00:29:44;;;;;;;47.45;30.05;;;14.00;99.90;;;;;;5006345;28;20030;-58
2021/09/14 00:32:10;;;;;;;49.17;31.35;;;14.00;99.90;;;;;;5008694;28;20076;-57
2021/09/14 00:34:36;;;;;;;47.22;31.92;;;14.00;99.90;;;;;;5018034;28;20042;-57
2021/09/14 00:37:02;;;;;;;43.42;30.33;;;14.00;99.90;;;;;;5012438;28;20077;-59
2021/09/14 00:39:27;;;;;;;43.13;29.88;;;14.00;99.90;;;;;;5013912;28;20022;-59
2021/09/14 00:41:53;;;;;;;45.03;30.65;;;13.90;99.90;;;;;;5011897;28;20561;-58
2021/09/14 00:44:18;;;;;;;47.25;31.80;;;13.90;99.90;;;;;;5012547;28;20029;-59
2021/09/14 00:46:44;;;;;;;46.10;30.35;;;13.90;99.90;;;;;;5016455;28;20112;-58
2021/09/14 00:49:10;;;;;;;49.58;30.02;;;13.90;99.90;;;;;;5012599;28;20045;-58
2021/09/14 00:51:36;;;;;;;45.40;30.08;;;13.90;99.90;;;;;;4995075;28;20034;-57
2021/09/14 00:54:02;;;;;;;44.42;29.48;;;13.90;99.90;;;;;;5012896;28;20030;-57
2021/09/14 00:56:28;;;;;;;41.42;28.17;;;13.90;99.90;;;;;;5012064;28;20105;-56
2021/09/14 00:58:54;;;;;;;47.72;28.83;;;13.90;99.90;;;;;;5016535;28;20034;-56
2021/09/14 01:01:20;;;;;;;40.15;28.38;;;13.80;99.90;;;;;;5012473;28;20041;-58
2021/09/14 01:03:45;;;;;;;43.03;28.60;;;13.80;99.90;;;;;;4998984;28;20017;-56
2021/09/14 01:06:11;;;;;;;42.05;28.73;;;13.80;99.90;;;;;;5014110;28;20041;-56
2021/09/14 01:08:37;;;;;;;46.42;29.08;;;13.80;99.90;;;;;;5014946;28;20034;-59
2021/09/14 01:11:04;;;;;;;40.35;28.08;;;13.70;99.90;;;;;;5014898;28;20049;-58
2021/09/14 01:13:30;;;;;;;42.55;27.60;;;13.70;99.90;;;;;;5019780;28;20061;-58
2021/09/14 01:16:02;;;;;;;40.75;27.88;;;13.70;99.90;;;;;;5013580;28;20077;-58
2021/09/14 01:18:28;;;;;;;44.33;28.15;;;13.70;99.90;;;;;;5010458;28;20037;-58
2021/09/14 01:20:53;;;;;;;45.22;27.83;;;13.70;99.90;;;;;;5009498;28;20118;-57
2021/09/14 01:23:19;;;;;;;43.90;26.98;;;13.70;99.90;;;;;;5009633;28;20413;-58
2021/09/14 01:25:44;;;;;;;45.65;28.70;;;13.60;99.90;;;;;;5012722;28;20044;-57
2021/09/14 01:28:10;;;;;;;40.65;26.98;;;13.60;99.90;;;;;;5036520;23;20057;-62
2021/09/14 01:30:35;;;;;;;48.05;30.05;;;13.60;99.90;;;;;;5018017;28;20022;-63
2021/09/14 01:33:01;;;;;;;43.83;28.23;;;13.60;99.90;;;;;;5013195;28;20053;-62
2021/09/14 01:35:29;;;;;;;45.90;28.17;;;13.60;99.90;;;;;;5011680;28;20030;-60
2021/09/14 01:37:55;;;;;;;41.80;25.83;;;13.60;99.90;;;;;;5010998;28;20018;-62
2021/09/14 01:40:21;;;;;;;40.95;28.35;;;13.60;99.90;;;;;;5010730;28;20022;-61
2021/09/14 01:42:47;;;;;;;40.35;27.70;;;13.50;99.90;;;;;;5014971;28;20408;-62
2021/09/14 01:45:14;;;;;;;46.72;29.45;;;13.50;99.90;;;;;;5007947;28;20066;-61
2021/09/14 01:47:40;;;;;;;42.38;28.17;;;13.50;99.90;;;;;;5013646;28;20033;-60
2021/09/14 01:50:08;;;;;;;50.33;28.95;;;13.50;99.90;;;;;;5008895;28;20092;-62
2021/09/14 01:52:34;;;;;;;36.10;26.17;;;13.50;99.90;;;;;;5009280;28;20052;-61
2021/09/14 01:55:09;;;;;;;43.53;26.65;;;13.60;99.90;;;;;;5011471;28;20098;-62
2021/09/14 01:57:37;;;;;;;32.97;23.42;;;13.60;99.90;;;;;;5009689;28;20047;-61
2021/09/14 02:00:06;;;;;;;33.60;23.40;;;13.60;99.90;;;;;;5013686;28;20109;-61
2021/09/14 02:05:09;;;;;;;38.67;24.23;;;13.50;99.90;;;;;;5013249;28;20428;-62
2021/09/14 02:43:10;;;;;;;39.38;26.77;;;13.30;99.90;;;;;;5010544;28;20030;-62
2021/09/14 02:56:43;;;;;;;39.30;26.88;;;13.30;99.90;;;;;;5009958;28;20045;-61
2021/09/14 02:59:08;;;;;;;45.38;28.17;;;13.30;99.90;;;;;;4995307;28;20681;-62
2021/09/14 03:01:34;;;;;;;36.05;27.05;;;13.20;99.90;;;;;;5012213;28;20046;-62
2021/09/14 03:04:00;;;;;;;39.67;26.90;;;13.20;99.90;;;;;;5011851;28;20041;-62
2021/09/14 03:06:25;;;;;;;42.20;27.42;;;13.30;99.90;;;;;;5010347;28;20045;-61
2021/09/14 03:08:51;;;;;;;37.63;26.60;;;13.30;99.90;;;;;;5012175;28;20033;-61
2021/09/14 03:11:18;;;;;;;39.20;26.65;;;13.30;99.90;;;;;;5015513;28;20033;-62
2021/09/14 03:13:44;;;;;;;44.00;28.55;;;13.20;99.90;;;;;;5011520;28;20041;-61
2021/09/14 03:16:12;;;;;;;40.10;28.00;;;13.20;99.90;;;;;;5012514;28;20030;-61
2021/09/14 03:18:38;;;;;;;41.65;27.58;;;13.20;99.90;;;;;;4995925;28;20561;-60
2021/09/14 03:21:05;;;;;;;45.63;27.60;;;13.20;99.90;;;;;;5005980;28;20077;-62
2021/09/14 03:23:32;;;;;;;45.75;29.73;;;13.10;99.90;;;;;;5011263;28;20021;-61
2021/09/14 03:25:58;;;;;;;46.72;28.40;;;13.10;99.90;;;;;;5011412;28;20738;-61
2021/09/14 03:28:24;;;;;;;43.65;28.23;;;13.10;99.90;;;;;;5010107;28;20034;-62
2021/09/14 03:30:50;;;;;;;42.42;27.52;;;13.10;99.90;;;;;;5011183;28;20029;-61
2021/09/14 03:33:15;;;;;;;42.03;29.00;;;13.10;99.90;;;;;;5009430;28;20105;-61
2021/09/14 03:35:42;;;;;;;43.70;28.48;;;13.10;99.90;;;;;;5009502;28;20583;-62
2021/09/14 03:38:07;;;;;;;45.70;28.85;;;13.10;99.90;;;;;;5009958;28;20025;-62
2021/09/14 03:40:33;;;;;;;45.45;29.48;;;13.00;99.90;;;;;;5015890;28;20030;-61
2021/09/14 03:42:58;;;;;;;53.47;29.50;;;13.00;99.90;;;;;;5006723;28;20117;-60
2021/09/14 03:45:25;;;;;;;51.90;29.77;;;13.00;99.90;;;;;;5009083;28;20107;-62
2021/09/14 03:47:50;;;;;;;48.67;29.95;;;13.00;99.90;;;;;;5011425;28;20068;-62
2021/09/14 03:50:16;;;;;;;45.22;28.92;;;13.00;99.90;;;;;;5007046;28;20061;-61
2021/09/14 03:52:41;;;;;;;44.85;28.08;;;13.00;99.90;;;;;;5007463;28;20038;-62
2021/09/14 03:55:08;;;;;;;45.28;28.48;;;12.90;99.90;;;;;;5017035;28;20070;-62
2021/09/14 03:57:33;;;;;;;45.50;29.67;;;12.90;99.90;;;;;;5011068;28;20518;-62
2021/09/14 03:59:59;;;;;;;44.55;28.50;;;12.90;99.90;;;;;;5011857;28;20033;-62
2021/09/14 04:05:26;;;;;;;45.17;27.80;;;12.90;99.90;;;;;;5006770;28;20030;-62
2021/09/14 04:08:03;;;;;;;40.83;27.75;;;12.90;99.90;;;;;;5010203;28;20037;-62
2021/09/14 04:10:28;;;;;;;46.35;27.95;;;12.90;99.90;;;;;;4994542;28;20025;-62
2021/09/14 04:12:54;;;;;;;40.58;27.95;;;12.90;99.90;;;;;;5005818;28;20031;-62
2021/09/14 04:15:20;;;;;;;50.13;29.70;;;12.90;99.90;;;;;;5010262;28;20062;-62
2021/09/14 04:17:45;;;;;;;44.05;27.88;;;12.90;99.90;;;;;;5011273;28;20026;-62
2021/09/14 04:20:11;;;;;;;41.38;27.90;;;12.90;99.90;;;;;;5007623;28;20037;-62
2021/09/14 04:22:37;;;;;;;40.75;27.83;;;12.90;99.90;;;;;;5012007;28;20036;-62
2021/09/14 04:25:02;;;;;;;45.13;28.85;;;12.80;99.90;;;;;;5011320;28;20417;-62
2021/09/14 04:27:28;;;;;;;43.30;27.50;;;12.80;99.90;;;;;;5000576;28;20485;-62
2021/09/14 04:29:53;;;;;;;40.95;26.05;;;12.80;99.90;;;;;;5009784;28;20120;-62
2021/09/14 04:32:19;;;;;;;47.25;27.98;;;12.90;99.90;;;;;;5009083;28;20496;-62
2021/09/14 04:34:44;;;;;;;44.72;28.25;;;12.80;99.90;;;;;;5005738;28;20018;-62
2021/09/14 04:37:10;;;;;;;48.47;28.98;;;12.80;99.90;;;;;;5010711;28;20436;-62
2021/09/14 04:39:35;;;;;;;44.30;27.55;;;12.80;99.90;;;;;;5011120;28;20025;-62
2021/09/14 04:42:01;;;;;;;39.10;26.83;;;12.90;99.90;;;;;;5010018;28;20030;-62
2021/09/14 04:44:27;;;;;;;40.90;26.33;;;12.80;99.90;;;;;;5005542;28;20110;-62
2021/09/14 04:46:52;;;;;;;42.25;26.88;;;12.90;99.90;;;;;;5008613;28;20037;-62
2021/09/14 04:49:18;;;;;;;38.58;26.70;;;12.80;99.90;;;;;;5004814;28;20037;-61
2021/09/14 04:51:43;;;;;;;37.80;26.33;;;12.80;99.90;;;;;;5009292;28;20034;-62
2021/09/14 04:54:09;;;;;;;40.55;25.33;;;12.80;99.90;;;;;;5006230;28;20084;-62
2021/09/14 04:56:34;;;;;;;43.38;26.38;;;12.80;99.90;;;;;;5009937;28;20444;-62
2021/09/14 04:59:00;;;;;;;44.80;26.17;;;12.80;99.90;;;;;;5009148;28;20393;-62
2021/09/14 05:01:25;;;;;;;39.38;24.85;;;12.80;99.90;;;;;;5009474;28;20541;-62
2021/09/14 05:03:51;;;;;;;44.90;24.63;;;12.80;99.90;;;;;;5005735;28;20129;-61
2021/09/14 05:06:16;;;;;;;40.17;26.73;;;12.80;99.90;;;;;;5006647;28;20026;-61
2021/09/14 05:08:42;;;;;;;43.45;25.42;;;12.80;99.90;;;;;;5004352;28;20737;-60
2021/09/14 05:11:07;;;;;;;47.17;26.52;;;12.80;99.90;;;;;;5009239;28;20036;-61
2021/09/14 05:13:36;;;;;;;38.08;26.38;;;12.80;99.90;;;;;;5006166;28;20058;-62
2021/09/14 05:16:01;;;;;;;41.50;26.48;;;12.80;99.90;;;;;;5006453;28;20498;-62
2021/09/14 05:18:28;;;;;;;41.83;25.60;;;12.80;99.90;;;;;;5011218;28;20114;-62
2021/09/14 05:20:55;;;;;;;42.10;25.80;;;12.90;99.90;;;;;;5010019;28;20109;-62
2021/09/14 05:23:30;;;;;;;37.25;25.58;;;12.90;99.90;;;;;;5004662;28;20030;-62
2021/09/14 05:26:00;;;;;;;36.78;25.45;;;12.90;99.90;;;;;;5009223;28;20112;-59
2021/09/14 05:28:26;;;;;;;36.95;24.60;;;13.00;99.90;;;;;;5008778;28;20467;-61
2021/09/14 05:30:52;;;;;;;41.72;25.58;;;13.00;99.90;;;;;;5012557;28;20034;-61
2021/09/14 05:33:18;;;;;;;35.10;24.73;;;13.00;99.90;;;;;;5013105;28;20033;-62
2021/09/14 05:35:52;;;;;;;43.92;25.80;;;13.10;99.90;;;;;;5005838;28;20089;-61
2021/09/14 05:38:20;;;;;;;39.75;25.88;;;13.10;99.90;;;;;;5009432;28;20397;-61
2021/09/14 05:40:47;;;;;;;41.72;24.58;;;13.20;99.90;;;;;;5007023;28;20072;-61
2021/09/14 05:43:13;;;;;;;39.30;24.42;;;13.20;99.90;;;;;;5013017;28;20156;-62
2021/09/14 05:45:39;;;;;;;37.08;24.80;;;13.20;99.90;;;;;;5011575;28;20494;-61
2021/09/14 05:48:04;;;;;;;37.20;24.05;;;13.20;99.90;;;;;;4990038;28;20468;-60
2021/09/14 05:50:30;;;;;;;37.90;23.92;;;13.30;99.90;;;;;;5006868;28;20404;-61
2021/09/14 05:52:55;;;;;;;37.70;23.98;;;13.30;99.90;;;;;;5012926;28;20076;-62
2021/09/14 05:55:21;;;;;;;46.78;26.25;;;13.40;99.90;;;;;;5010198;28;20034;-62
2021/09/14 05:57:47;;;;;;;35.47;23.55;;;13.40;99.90;;;;;;5011557;28;20398;-62
2021/09/14 06:00:13;;;;;;;35.80;24.17;;;13.50;99.90;;;;;;5008670;28;20030;-62
2021/09/14 06:02:39;;;;;;;36.97;23.42;;;13.60;99.90;;;;;;5010906;28;20137;-61
2021/09/14 06:05:06;;;;;;;36.88;25.33;;;13.60;99.90;;;;;;5013199;28;20105;-63
2021/09/14 06:07:33;;;;;;;41.90;25.58;;;13.70;99.90;;;;;;5013366;28;20523;-61
2021/09/14 06:09:59;;;;;;;32.63;23.02;;;13.80;99.90;;;;;;5013702;28;20101;-62
2021/09/14 06:12:25;;;;;;;35.85;24.33;;;13.80;99.90;;;;;;5013425;28;20033;-62
2021/09/14 06:14:50;;;;;;;45.65;23.98;;;13.90;99.90;;;;;;5012814;28;20510;-62
2021/09/14 06:17:16;;;;;;;34.83;22.13;;;14.00;99.90;;;;;;5013347;28;20033;-61
2021/09/14 06:19:42;;;;;;;35.65;24.10;;;14.00;99.90;;;;;;5013085;28;20030;-61
2021/09/14 06:22:08;;;;;;;33.78;22.50;;;14.10;99.90;;;;;;5013238;28;20022;-62
2021/09/14 06:24:33;;;;;;;35.78;22.58;;;14.20;99.90;;;;;;5013050;28;20489;-61
2021/09/14 06:26:59;;;;;;;31.17;21.13;;;14.30;99.90;;;;;;5013179;28;20571;-62
2021/09/14 06:29:25;;;;;;;34.45;21.13;;;14.30;99.90;;;;;;5012496;28;20120;-61
2021/09/14 06:31:50;;;;;;;31.17;21.77;;;14.40;99.90;;;;;;5005361;28;20062;-61
2021/09/14 06:34:16;;;;;;;29.38;21.33;;;14.40;99.90;;;;;;5012105;28;20408;-61
2021/09/14 06:36:41;;;;;;;37.95;22.35;;;14.50;99.90;;;;;;5013104;28;20026;-61
2021/09/14 06:39:07;;;;;;;34.55;21.70;;;14.60;99.90;;;;;;5013072;28;20397;-61
2021/09/14 06:41:32;;;;;;;36.25;22.58;;;14.60;99.90;;;;;;5012859;28;20120;-60
2021/09/14 06:43:58;;;;;;;30.08;20.75;;;14.70;99.90;;;;;;5010733;28;20172;-61
2021/09/14 06:46:24;;;;;;;31.85;19.58;;;14.70;99.90;;;;;;5010123;28;20030;-61
2021/09/14 06:48:50;;;;;;;28.55;18.92;;;14.80;99.90;;;;;;5012527;28;20100;-61
2021/09/14 06:51:16;;;;;;;29.08;18.40;;;14.90;99.90;;;;;;5012540;28;20052;-60
2021/09/14 06:53:42;;;;;;;24.95;18.30;;;14.90;99.90;;;;;;5012542;28;20488;-61
2021/09/14 06:56:08;;;;;;;30.48;16.98;;;15.00;99.90;;;;;;5012556;28;20493;-59
2021/09/14 06:58:34;;;;;;;27.33;16.38;;;15.10;99.90;;;;;;5012916;28;20041;-60
2021/09/14 07:01:00;;;;;;;25.10;15.35;;;15.20;99.90;;;;;;5012445;28;20087;-60
2021/09/14 07:03:25;;;;;;;28.40;17.67;;;15.30;99.90;;;;;;5012279;28;20080;-60
2021/09/14 07:05:51;;;;;;;23.65;15.93;;;15.40;99.90;;;;;;5012263;28;20084;-61
2021/09/14 07:08:16;;;;;;;25.02;15.35;;;15.50;99.90;;;;;;5012383;28;20040;-59
2021/09/14 07:10:42;;;;;;;24.38;14.90;;;15.60;99.90;;;;;;5012435;28;20029;-60
2021/09/14 07:13:07;;;;;;;24.83;15.85;;;15.70;99.90;;;;;;5012273;28;20030;-61
2021/09/14 07:15:34;;;;;;;28.40;15.07;;;15.70;99.90;;;;;;5012181;28;20052;-61
2021/09/14 07:18:00;;;;;;;24.50;15.82;;;15.80;99.90;;;;;;5008103;28;20038;-61
2021/09/14 07:20:26;;;;;;;20.10;14.80;;;15.80;99.90;;;;;;5011359;28;20114;-61
2021/09/14 07:22:51;;;;;;;23.33;14.35;;;15.90;99.90;;;;;;5011665;28;20076;-61
2021/09/14 07:25:17;;;;;;;21.00;14.13;;;15.90;99.90;;;;;;5005485;28;20026;-61
2021/09/14 07:27:42;;;;;;;21.92;13.57;;;16.00;99.90;;;;;;5037906;23;20017;-57
2021/09/14 07:30:08;;;;;;;21.05;12.82;;;16.00;99.90;;;;;;5016172;28;20037;-58
2021/09/14 07:32:34;;;;;;;24.20;13.25;;;16.00;99.90;;;;;;5011960;28;20393;-59
2021/09/14 07:34:59;;;;;;;21.17;13.50;;;16.10;99.90;;;;;;5012152;28;20040;-59
2021/09/14 07:37:25;;;;;;;23.17;12.68;;;16.10;99.90;;;;;;5012403;28;20419;-57
2021/09/14 07:39:51;;;;;;;23.38;12.93;;;16.10;99.90;;;;;;5012263;28;20450;-55
2021/09/14 07:42:17;;;;;;;23.10;12.02;;;16.20;99.90;;;;;;5011696;28;20030;-56
2021/09/14 07:44:42;;;;;;;22.58;12.95;;;16.20;99.90;;;;;;5010780;28;20049;-58
2021/09/14 07:47:08;;;;;;;16.45;11.73;;;16.10;99.90;;;;;;5006980;28;20072;-55
2021/09/14 07:49:34;;;;;;;20.80;12.30;;;16.20;99.90;;;;;;5014633;28;20096;-57
2021/09/14 07:51:59;;;;;;;21.73;11.63;;;16.20;99.90;;;;;;5013207;28;20034;-57
2021/09/14 07:54:26;;;;;;;23.63;12.52;;;16.20;99.90;;;;;;5011486;28;20026;-55
2021/09/14 07:56:52;;;;;;;20.17;13.10;;;16.20;99.90;;;;;;5012010;28;20113;-56
2021/09/14 07:59:17;;;;;;;20.70;12.77;;;16.20;99.90;;;;;;5010181;28;20045;-58
2021/09/14 08:01:43;;;;;;;23.88;11.48;;;16.20;99.90;;;;;;5018099;28;20089;-57
2021/09/14 08:04:09;;;;;;;21.40;12.40;;;16.30;99.90;;;;;;5008537;28;20384;-58
2021/09/14 08:06:34;;;;;;;18.35;11.45;;;16.40;99.90;;;;;;5011833;28;20049;-56
2021/09/14 08:09:00;;;;;;;22.52;12.23;;;16.50;99.90;;;;;;5011112;28;20033;-55
2021/09/14 08:11:25;;;;;;;15.70;11.75;;;16.60;99.90;;;;;;5011586;28;20026;-57
2021/09/14 08:13:51;;;;;;;20.25;11.82;;;16.70;99.90;;;;;;5014386;28;20045;-56
2021/09/14 08:16:17;;;;;;;17.75;11.98;;;16.80;99.90;;;;;;5010952;28;20571;-59
2021/09/14 08:18:43;;;;;;;14.70;11.00;;;16.80;99.90;;;;;;5010046;28;20030;-56
2021/09/14 08:21:09;;;;;;;20.77;11.15;;;16.90;99.90;;;;;;5017469;28;20109;-58
2021/09/14 08:23:35;;;;;;;19.88;11.75;;;17.00;99.90;;;;;;5012318;28;20041;-57
2021/09/14 08:26:02;;;;;;;16.83;10.90;;;17.00;99.90;;;;;;5011905;28;20033;-58
2021/09/14 08:28:28;;;;;;;20.98;11.73;;;17.10;99.90;;;;;;5011534;28;20040;-58
2021/09/14 08:30:54;;;;;;;17.95;10.80;;;17.20;99.90;;;;;;5013751;28;20088;-58
2021/09/14 08:33:20;;;;;;;16.88;11.57;;;17.30;99.90;;;;;;5011098;28;20041;-59
2021/09/14 08:35:45;;;;;;;28.65;11.32;;;17.40;99.90;;;;;;5011314;28;20097;-57
2021/09/14 08:38:11;;;;;;;17.88;10.60;;;17.50;99.90;;;;;;5010960;28;20105;-61
2021/09/14 08:40:37;;;;;;;15.20;10.23;;;17.60;99.90;;;;;;5011763;28;20026;-56
2021/09/14 08:43:02;;;;;;;15.00;10.95;;;17.70;99.90;;;;;;5016341;28;20022;-60
2021/09/14 08:45:28;;;;;;;13.20;9.55;;;17.80;99.90;;;;;;5012454;28;20037;-57
2021/09/14 08:47:54;;;;;;;16.60;10.05;;;17.90;99.90;;;;;;5009730;28;20034;-59
2021/09/14 08:50:23;;;;;;;17.85;10.35;;;18.00;99.90;;;;;;5013840;28;20100;-58
2021/09/14 08:52:49;;;;;;;18.92;9.80;;;18.10;99.90;;;;;;5007128;28;20033;-59
2021/09/14 08:55:15;;;;;;;15.70;9.45;;;18.20;99.90;;;;;;5011811;28;20030;-56
2021/09/14 08:57:49;;;;;;;14.65;8.68;;;18.30;99.90;;;;;;5014905;28;20030;-58
2021/09/14 09:00:15;;;;;;;16.88;9.02;;;18.40;99.90;;;;;;5015193;28;20060;-57
2021/09/14 09:02:52;;;;;;;15.38;9.38;;;18.50;99.90;;;;;;5014555;28;20049;-58
2021/09/14 09:05:17;;;;;;;12.80;8.95;;;18.70;99.90;;;;;;5014932;28;20030;-59
2021/09/14 09:07:45;;;;;;;13.32;9.32;;;18.80;99.90;;;;;;5014814;28;20092;-58
2021/09/14 09:10:14;;;;;;;14.00;9.02;;;19.00;99.90;;;;;;5014817;28;20501;-58
2021/09/14 09:12:45;;;;;;;13.98;8.20;;;19.10;99.90;;;;;;5014638;28;20025;-57
2021/09/14 09:15:21;;;;;;;17.70;8.52;;;19.20;99.90;;;;;;5014793;28;20038;-60
2021/09/14 09:17:46;;;;;;;10.02;8.10;;;19.30;99.90;;;;;;5014174;28;20026;-59
2021/09/14 09:20:12;;;;;;;11.77;7.57;;;19.30;99.90;;;;;;5014638;28;20036;-60
2021/09/14 09:22:38;;;;;;;14.50;8.70;;;19.30;99.90;;;;;;4996823;28;20101;-56
2021/09/14 09:25:05;;;;;;;13.40;8.20;;;19.40;99.90;;;;;;5013262;28;20026;-59
2021/09/14 09:27:31;;;;;;;16.77;8.15;;;19.50;99.90;;;;;;4994409;28;20511;-60
2021/09/14 09:29:58;;;;;;;13.80;7.65;;;19.60;99.90;;;;;;5014880;28;20022;-59
2021/09/14 09:32:24;;;;;;;13.32;7.85;;;19.80;99.90;;;;;;5013745;28;20022;-57
2021/09/14 09:34:57;;;;;;;11.60;7.13;;;19.90;99.90;;;;;;5014446;28;20029;-59
2021/09/14 09:37:23;;;;;;;11.43;8.45;;;20.10;99.90;;;;;;5014683;28;20034;-60
2021/09/14 09:39:48;;;;;;;9.85;6.85;;;20.20;99.90;;;;;;5014565;28;20088;-59
2021/09/14 09:42:16;;;;;;;10.77;7.63;;;20.30;99.90;;;;;;5014635;28;20026;-60
2021/09/14 09:44:53;;;;;;;15.35;7.88;;;20.40;99.90;;;;;;5014083;28;20088;-57
2021/09/14 09:47:19;;;;;;;10.38;7.47;;;20.60;99.90;;;;;;5014000;28;20034;-55
2021/09/14 09:49:47;;;;;;;19.98;10.10;;;20.70;99.90;;;;;;5013696;28;20076;-59
2021/09/14 09:52:13;;;;;;;11.25;7.65;;;20.90;99.90;;;;;;5014248;28;20113;-60
2021/09/14 09:54:40;;;;;;;12.40;8.02;;;21.00;99.90;;;;;;5013878;28;20034;-58
2021/09/14 09:57:08;;;;;;;9.88;6.78;;;21.20;99.90;;;;;;5013893;28;20061;-60
2021/09/14 09:59:34;;;;;;;11.70;6.78;;;21.30;99.90;;;;;;5013472;28;20029;-58
2021/09/14 10:02:07;;;;;;;12.27;7.15;;;21.40;99.90;;;;;;5013303;28;20117;-56
2021/09/14 10:05:10;;;;;;;11.87;7.10;;;21.60;99.90;;;;;;5009810;28;20026;-60
2021/09/14 10:07:40;;;;;;;10.27;6.50;;;21.90;99.90;;;;;;5005868;28;20038;-59
2021/09/14 10:10:06;;;;;;;11.95;6.65;;;22.20;99.90;;;;;;5013737;28;20038;-58
2021/09/14 10:12:35;;;;;;;12.13;6.38;;;22.30;99.90;;;;;;5013438;28;20032;-55
2021/09/14 10:15:07;;;;;;;7.93;5.53;;;22.40;99.90;;;;;;5013687;28;20413;-56
2021/09/14 10:17:46;;;;;;;9.00;5.60;;;22.40;99.90;;;;;;4994155;28;20037;-59
2021/09/14 10:20:12;;;;;;;13.55;7.57;;;22.50;99.90;;;;;;5009996;28;20038;-56
2021/09/14 10:22:39;;;;;;;10.00;6.10;;;22.40;99.90;;;;;;5010030;28;20192;-59
2021/09/14 10:25:06;;;;;;;10.68;6.20;;;22.50;99.90;;;;;;5013719;28;20071;-60
2021/09/14 10:27:37;;;;;;;8.10;5.25;;;22.70;99.90;;;;;;5013441;28;20018;-55
2021/09/14 10:30:04;;;;;;;9.20;5.70;;;23.00;99.90;;;;;;5013533;28;20029;-56
2021/09/14 10:32:41;;;;;;;9.82;5.25;;;23.30;99.90;;;;;;5011018;28;20033;-52
2021/09/14 10:35:08;;;;;;;13.32;6.00;;;23.50;99.90;;;;;;5012862;28;20026;-59
2021/09/14 10:37:36;;;;;;;8.23;5.90;;;23.40;99.90;;;;;;5012661;28;20026;-56
2021/09/14 10:40:14;;;;;;;9.85;6.55;;;23.40;99.90;;;;;;5013190;28;20021;-59
2021/09/14 10:42:45;;;;;;;30.08;6.75;;;23.30;99.90;;;;;;5012796;28;20025;-59
2021/09/14 10:45:14;;;;;;;18.95;6.68;;;23.30;99.90;;;;;;5013060;28;20512;-59
2021/09/14 10:47:45;;;;;;;11.63;5.97;;;23.20;99.90;;;;;;5012320;28;20117;-58
2021/09/14 10:50:25;;;;;;;9.82;6.15;;;23.20;99.90;;;;;;5013183;28;20034;-56
2021/09/14 10:52:57;;;;;;;8.73;5.53;;;23.20;99.90;;;;;;5006477;28;20022;-58
2021/09/14 10:55:22;;;;;;;11.02;6.32;;;23.30;99.90;;;;;;5000064;28;20034;-60
2021/09/14 10:57:56;;;;;;;11.45;5.60;;;23.50;99.90;;;;;;5012528;28;20565;-59
2021/09/14 11:00:32;;;;;;;8.70;6.45;;;23.80;99.90;;;;;;5006925;28;20033;-55
2021/09/14 11:03:03;;;;;;;7.72;6.28;;;24.00;99.90;;;;;;5010115;28;20060;-56
2021/09/14 11:05:33;;;;;;;14.50;6.15;;;24.10;99.90;;;;;;5008973;28;20054;-59
2021/09/14 11:08:00;;;;;;;9.45;5.75;;;23.90;99.90;;;;;;5011188;28;20072;-59
2021/09/14 11:10:34;;;;;;;8.75;5.78;;;23.90;99.90;;;;;;5012517;28;20485;-58
2021/09/14 11:12:59;;;;;;;6.07;5.07;;;23.80;99.90;;;;;;5010242;28;20041;-60
2021/09/14 11:15:26;;;;;;;10.05;5.70;;;23.70;99.90;;;;;;5011532;28;20034;-59
2021/09/14 11:17:51;;;;;;;13.15;6.43;;;23.50;99.90;;;;;;5008596;28;20030;-59
2021/09/14 11:20:20;;;;;;;10.57;5.75;;;23.40;99.90;;;;;;5006946;28;20030;-60
2021/09/14 11:22:47;;;;;;;10.50;6.07;;;23.40;99.90;;;;;;5005955;28;20057;-58
2021/09/14 11:25:22;;;;;;;11.07;5.43;;;23.40;99.90;;;;;;5010649;28;20617;-58
2021/09/14 11:28:07;;;;;;;9.98;5.90;;;23.60;99.90;;;;;;5001941;28;20064;-61
2021/09/14 11:30:35;;;;;;;9.75;5.70;;;23.80;99.90;;;;;;4999632;28;20059;-61
2021/09/14 11:33:02;;;;;;;8.55;5.10;;;23.90;99.90;;;;;;5005910;28;20044;-59
2021/09/14 11:35:30;;;;;;;12.45;6.75;;;24.00;99.90;;;;;;5008310;28;20393;-61
2021/09/14 11:38:06;;;;;;;8.15;5.50;;;24.20;99.90;;;;;;5003766;28;20026;-56
2021/09/14 11:40:33;;;;;;;7.60;5.55;;;24.40;99.90;;;;;;5004643;28;20062;-60
2021/09/14 11:43:00;;;;;;;6.45;5.15;;;24.50;99.90;;;;;;5002802;28;20029;-58
2021/09/14 11:45:28;;;;;;;11.38;6.43;;;24.50;99.90;;;;;;5006149;28;20109;-60
2021/09/14 11:47:55;;;;;;;12.60;6.28;;;24.70;99.90;;;;;;5007975;28;20037;-54
2021/09/14 11:50:26;;;;;;;8.73;6.03;;;24.70;99.90;;;;;;5008048;28;20038;-59
2021/09/14 11:53:06;;;;;;;10.43;5.72;;;24.80;99.90;;;;;;5004643;28;20026;-60
2021/09/14 11:55:33;;;;;;;10.52;5.18;;;25.00;99.90;;;;;;5003883;28;20080;-59
2021/09/14 11:58:00;;;;;;;12.35;5.60;;;25.00;99.90;;;;;;5006431;28;20517;-63
2021/09/14 12:00:36;;;;;;;7.78;5.45;;;25.10;99.90;;;;;;5004150;28;20041;-63
2021/09/14 12:03:03;;;;;;;12.73;5.65;;;25.00;99.90;;;;;;5002191;28;20452;-63
2021/09/14 12:05:28;;;;;;;7.95;5.75;;;24.90;99.90;;;;;;5008270;28;20080;-63
2021/09/14 12:07:58;;;;;;;6.60;4.85;;;25.10;99.90;;;;;;4990603;28;20034;-63
2021/09/14 12:10:25;;;;;;;12.55;4.97;;;25.10;99.90;;;;;;5007290;28;20022;-63
2021/09/14 12:12:55;;;;;;;9.55;5.13;;;25.20;99.90;;;;;;5005217;28;20038;-62
2021/09/14 12:15:22;;;;;;;9.50;5.10;;;25.20;99.90;;;;;;5004939;28;20117;-63
2021/09/14 12:17:48;;;;;;;9.18;5.03;;;25.30;99.90;;;;;;5010183;28;20415;-63
2021/09/14 12:20:15;;;;;;;8.35;5.45;;;25.00;99.90;;;;;;5011145;28;20018;-62
2021/09/14 12:22:40;;;;;;;9.60;5.85;;;24.80;99.90;;;;;;5010454;28;20092;-62
2021/09/14 12:25:07;;;;;;;7.13;5.30;;;24.80;99.90;;;;;;5005900;28;20102;-63
2021/09/14 12:27:32;;;;;;;10.35;5.10;;;24.80;99.90;;;;;;5009505;28;20107;-62
2021/09/14 12:29:58;;;;;;;8.25;4.53;;;25.00;99.90;;;;;;5004806;28;20161;-61
2021/09/14 12:32:23;;;;;;;9.95;5.05;;;24.90;99.90;;;;;;5005192;28;20114;-62
2021/09/14 12:34:49;;;;;;;8.43;5.72;;;24.70;99.90;;;;;;5008866;28;20465;-62
2021/09/14 12:37:15;;;;;;;11.57;4.95;;;24.80;99.90;;;;;;5005348;28;20022;-56
2021/09/14 12:39:41;;;;;;;5.72;4.65;;;24.70;99.90;;;;;;5003672;28;20033;-62
2021/09/14 12:42:07;;;;;;;7.13;4.63;;;24.70;99.90;;;;;;5008346;28;20022;-63
2021/09/14 12:44:51;;;;;;;7.30;5.05;;;24.70;99.90;;;;;;5008784;28;20156;-65
2021/09/14 12:47:16;;;;;;;10.00;5.00;;;24.60;99.90;;;;;;5010095;28;20584;-61
2021/09/14 12:49:42;;;;;;;9.27;5.28;;;24.50;99.90;;;;;;5008240;28;20121;-62
2021/09/14 12:52:10;;;;;;;5.65;4.32;;;24.60;99.90;;;;;;5007213;28;20178;-62
2021/09/14 12:54:39;;;;;;;8.80;4.53;;;24.60;99.90;;;;;;5005092;28;20030;-64
2021/09/14 12:57:05;;;;;;;10.25;5.30;;;24.60;99.90;;;;;;5002257;28;20066;-62
2021/09/14 12:59:33;;;;;;;8.55;5.68;;;24.60;99.90;;;;;;4989890;28;20441;-64
2021/09/14 13:01:59;;;;;;;9.07;4.47;;;24.50;99.90;;;;;;5019062;28;20501;-59
2021/09/14 13:04:25;;;;;;;10.32;4.60;;;24.60;99.90;;;;;;5005426;28;20032;-62
2021/09/14 13:06:51;;;;;;;8.68;4.43;;;24.50;99.90;;;;;;5009060;28;20044;-60
2021/09/14 13:09:17;;;;;;;6.15;4.40;;;24.70;99.90;;;;;;5008391;28;20076;-61
2021/09/14 13:11:42;;;;;;;9.98;4.93;;;24.90;99.90;;;;;;5009438;28;20029;-61
2021/09/14 13:16:52;;;;;;;6.53;4.70;;;25.30;99.90;;;;;;5007219;28;20040;-63
2021/09/14 13:19:17;;;;;;;10.02;5.05;;;25.50;99.90;;;;;;5003082;28;20042;-61
2021/09/14 13:21:43;;;;;;;8.85;5.10;;;25.90;99.90;;;;;;5004124;28;20053;-62
2021/09/14 13:24:08;;;;;;;4.53;4.13;;;25.90;99.90;;;;;;5004444;28;20119;-62
2021/09/14 13:26:34;;;;;;;4.40;3.80;;;25.80;99.90;;;;;;5007282;28;20062;-62